Time;durP1;ratioP1;P1;durP2;ratioP2;P2;SDS_P1;SDS_P2;PMS_P1;PMS_P2;Temp;Humidity;BMP_temperature;BMP_pressure;BME280_temperature;BME280_humidity;BME280_pressure;Samples;Min_cycle;Max_cycle;Signal;HPM_P1;HPM_P2
2022/12/28 01:31:32;;;;;;;14.77;5.65;;;0.60;99.90;;;;;;6200150;23;20065;-82
2022/12/28 02:53:07;;;;;;;18.45;7.45;;;0.20;99.90;;;;;;6179148;23;20031;31
2022/12/28 05:24:13;;;;;;;23.23;9.57;;;-0.60;99.90;;;;;;6190432;23;20027;31
2022/12/28 05:27:00;;;;;;;30.08;11.68;;;-0.60;99.90;;;;;;6160190;23;20021;-87
2022/12/28 05:29:49;;;;;;;28.30;11.85;;;-0.50;99.90;;;;;;6092876;23;20022;-86
2022/12/28 05:32:36;;;;;;;27.52;12.20;;;-0.80;99.90;;;;;;6161206;23;20029;-89
2022/12/28 05:35:22;;;;;;;30.05;13.23;;;-0.70;99.90;;;;;;6122628;23;20073;-89
2022/12/28 05:38:07;;;;;;;34.75;14.75;;;-0.90;99.90;;;;;;6171885;23;20044;-88
2022/12/28 05:41:17;;;;;;;37.40;14.77;;;-0.70;99.90;;;;;;6138279;23;20053;-88
2022/12/28 05:44:26;;;;;;;34.17;13.15;;;-0.60;99.90;;;;;;6141166;23;20029;-88
2022/12/28 06:09:06;;;;;;;41.58;14.95;;;-0.70;99.90;;;;;;6187138;23;20056;31
2022/12/28 06:32:07;;;;;;;19.67;9.43;;;-0.80;99.90;;;;;;6206778;23;20035;-88
2022/12/28 06:35:05;;;;;;;30.40;9.48;;;-0.90;99.90;;;;;;6167438;23;20012;-88
2022/12/28 06:38:04;;;;;;;26.30;8.95;;;-0.80;99.90;;;;;;6029182;23;20018;-88
2022/12/28 06:55:04;;;;;;;37.15;11.63;;;-0.80;99.90;;;;;;6162172;23;20973;-87
2022/12/28 06:57:49;;;;;;;29.55;11.55;;;-0.90;99.90;;;;;;6204303;23;20020;-91
2022/12/28 07:00:34;;;;;;;25.98;10.75;;;-0.80;99.90;;;;;;6181209;23;20017;-90
2022/12/28 07:03:46;;;;;;;27.25;11.32;;;-0.80;99.90;;;;;;6172724;23;20033;-88
2022/12/28 07:06:46;;;;;;;32.13;11.77;;;-0.80;99.90;;;;;;6096256;23;20023;-90
2022/12/28 07:10:20;;;;;;;34.75;12.05;;;-0.80;99.90;;;;;;6116767;23;20009;-89
2022/12/28 07:13:12;;;;;;;28.73;12.40;;;-0.80;99.90;;;;;;5924895;24;20033;-88
2022/12/28 07:16:40;;;;;;;27.85;11.98;;;-0.80;99.90;;;;;;5922969;24;20005;-88
2022/12/28 07:19:35;;;;;;;28.17;12.00;;;-0.70;99.90;;;;;;5888347;24;20028;-88
2022/12/28 07:26:30;;;;;;;50.13;17.85;;;-0.60;99.90;;;;;;5914720;24;20030;-90
2022/12/28 07:29:44;;;;;;;49.33;21.67;;;-0.60;99.90;;;;;;5881302;24;20022;-87
2022/12/28 07:57:02;;;;;;;30.23;14.45;;;0.00;99.90;;;;;;6249572;22;20038;-79
2022/12/28 07:59:29;;;;;;;31.60;13.65;;;0.10;99.90;;;;;;6258158;22;20019;-79
2022/12/28 08:01:57;;;;;;;27.70;11.93;;;0.10;99.90;;;;;;6282438;22;20050;-79
2022/12/28 08:04:25;;;;;;;31.58;12.70;;;-0.30;99.90;;;;;;6258165;22;20667;-79
2022/12/28 08:06:53;;;;;;;34.97;13.48;;;0.20;99.90;;;;;;6257429;22;20019;-79
2022/12/28 08:09:25;;;;;;;28.90;12.10;;;0.20;99.90;;;;;;6261517;22;20019;-79
2022/12/28 08:11:53;;;;;;;30.00;12.07;;;0.30;99.90;;;;;;6258002;22;20019;-79
2022/12/28 08:14:21;;;;;;;25.15;9.82;;;0.30;99.90;;;;;;6258750;22;20045;-79
2022/12/28 08:16:50;;;;;;;23.77;10.57;;;0.40;99.90;;;;;;6279931;22;20020;-80
2022/12/28 08:19:32;;;;;;;23.98;10.35;;;-0.40;99.90;;;;;;6275843;22;20027;-79
2022/12/28 08:22:00;;;;;;;21.42;9.80;;;0.30;99.90;;;;;;6254547;22;20058;-79
2022/12/28 08:24:28;;;;;;;26.48;11.02;;;0.50;99.90;;;;;;6253132;22;20027;-79
2022/12/28 12:45:38;;;;;;;8.98;2.38;;;5.90;91.50;;;;;;6247454;22;20027;-78
2022/12/28 12:48:15;;;;;;;;;;;5.80;91.10;;;;;;6266520;22;20016;-78
2022/12/28 12:50:53;;;;;;;21.92;7.03;;;5.80;91.10;;;;;;6289514;22;19919;-79
2022/12/28 12:53:40;;;;;;;11.82;4.53;;;5.70;91.60;;;;;;6276264;22;20036;-78
2022/12/28 12:56:24;;;;;;;;;;;5.60;91.40;;;;;;6244028;22;20031;-79
2022/12/28 12:59:29;;;;;;;6.63;2.15;;;5.60;91.60;;;;;;6239235;23;19900;-79
2022/12/28 13:02:48;;;;;;;6.50;2.10;;;5.30;91.90;;;;;;6237446;22;20673;-79
2022/12/28 13:05:23;;;;;;;20.88;6.70;;;5.50;92.30;;;;;;6122910;23;20039;-79
2022/12/28 13:08:01;;;;;;;25.88;8.43;;;5.50;92.60;;;;;;6183285;22;20012;-79
2022/12/28 13:10:34;;;;;;;36.78;12.95;;;5.60;91.90;;;;;;6238813;23;20050;-79
2022/12/28 13:13:06;;;;;;;7.28;2.08;;;5.30;91.70;;;;;;6241118;22;20068;-79
2022/12/28 13:18:36;;;;;;;2.17;0.90;;;5.70;91.10;;;;;;6242249;22;20053;-78
2022/12/28 13:21:19;;;;;;;3.72;1.40;;;5.50;91.00;;;;;;6297102;22;20268;-78
2022/12/28 13:23:49;;;;;;;5.18;1.88;;;5.50;91.00;;;;;;6242352;22;20023;-78
2022/12/28 13:54:14;;;;;;;5.45;1.73;;;5.00;93.70;;;;;;6273837;22;20175;-78
2022/12/28 13:57:03;;;;;;;6.80;1.90;;;4.80;94.00;;;;;;6185614;23;20013;-78
2022/12/28 14:07:14;;;;;;;8.90;3.65;;;5.00;94.50;;;;;;6220014;22;20120;31
2022/12/28 14:14:06;;;;;;;12.85;4.80;;;4.90;94.80;;;;;;6216288;22;20058;31
2022/12/28 14:17:20;;;;;;;6.45;3.45;;;4.90;95.20;;;;;;6221746;22;20088;31
2022/12/28 15:14:24;;;;;;;15.02;6.40;;;4.10;99.90;;;;;;6222990;22;20068;31
2022/12/28 16:44:21;;;;;;;53.42;19.23;;;2.50;99.90;;;;;;6125881;23;20033;-79
2022/12/28 16:46:50;;;;;;;64.50;27.10;;;2.30;99.90;;;;;;6099698;23;20038;-79
2022/12/28 16:49:20;;;;;;;64.30;26.75;;;2.40;99.90;;;;;;6100595;23;20018;-79
2022/12/28 16:51:49;;;;;;;54.13;23.02;;;2.30;99.90;;;;;;6098486;23;20346;-79
2022/12/28 16:54:23;;;;;;;52.28;22.42;;;2.40;99.90;;;;;;6099179;23;20025;-79
2022/12/28 16:56:51;;;;;;;53.63;20.85;;;2.40;99.90;;;;;;6147979;23;20346;-79
2022/12/28 16:59:25;;;;;;;48.60;20.95;;;2.30;99.90;;;;;;6098273;23;20076;-79
2022/12/28 17:01:54;;;;;;;48.55;21.70;;;2.40;99.90;;;;;;6100346;23;20401;-80
2022/12/28 17:04:22;;;;;;;53.75;22.75;;;2.30;99.90;;;;;;6101162;23;20117;-80
2022/12/28 17:06:50;;;;;;;44.08;20.30;;;2.50;99.90;;;;;;6121758;23;20346;-78
2022/12/28 17:09:18;;;;;;;40.35;16.63;;;2.30;99.90;;;;;;6101638;23;20018;-78
2022/12/28 17:11:48;;;;;;;31.92;14.95;;;2.40;99.90;;;;;;6103405;23;20017;-80
2022/12/28 17:14:19;;;;;;;32.85;14.98;;;2.30;99.90;;;;;;6104831;23;20100;-79
2022/12/28 17:17:07;;;;;;;52.63;20.08;;;2.30;99.90;;;;;;6154025;23;20446;-79
2022/12/28 17:19:39;;;;;;;117.65;39.40;;;2.30;99.90;;;;;;6135637;23;20018;-79
2022/12/28 17:22:09;;;;;;;81.47;29.92;;;2.50;99.90;;;;;;6157644;23;20021;-78
2022/12/28 17:24:37;;;;;;;54.42;21.23;;;2.50;99.90;;;;;;6108583;23;20040;-80
2022/12/28 17:27:10;;;;;;;32.75;13.45;;;2.40;99.90;;;;;;6130684;23;20046;-79
2022/12/28 17:29:44;;;;;;;27.60;13.93;;;2.50;99.90;;;;;;6103700;23;20056;-78
2022/12/28 17:32:18;;;;;;;45.80;13.85;;;2.50;99.90;;;;;;6110940;23;20076;-78
2022/12/28 17:34:45;;;;;;;40.88;11.02;;;2.60;99.90;;;;;;6131555;23;20022;-78
2022/12/28 17:37:20;;;;;;;41.45;11.52;;;2.10;99.90;;;;;;6136786;23;20453;-78
2022/12/28 17:39:47;;;;;;;30.67;9.90;;;2.60;99.90;;;;;;6143262;23;20425;-80
2022/12/28 17:42:15;;;;;;;36.53;10.85;;;2.30;99.90;;;;;;6119389;23;20465;-79
2022/12/28 17:44:44;;;;;;;23.98;8.27;;;2.60;99.90;;;;;;6138825;23;20018;-80
2022/12/28 17:47:12;;;;;;;8.93;5.03;;;2.50;99.90;;;;;;6136681;23;20021;-78
2022/12/28 17:49:44;;;;;;;25.00;8.80;;;2.70;99.90;;;;;;6184628;23;20043;-78
2022/12/28 17:52:18;;;;;;;25.92;9.00;;;2.50;99.90;;;;;;6186513;23;20025;-78
2022/12/28 17:54:50;;;;;;;19.08;6.32;;;2.60;99.90;;;;;;6139434;23;20069;-79
2022/12/28 17:57:22;;;;;;;15.88;5.78;;;2.60;99.90;;;;;;6140531;23;20041;-79
2022/12/28 17:59:49;;;;;;;19.80;6.93;;;2.60;99.90;;;;;;6139391;23;20085;-78
2022/12/28 18:02:17;;;;;;;21.17;6.68;;;2.20;99.90;;;;;;6139351;23;20030;-78
2022/12/28 18:04:44;;;;;;;17.23;5.60;;;2.50;99.90;;;;;;6136561;23;20024;-80
2022/12/28 18:07:11;;;;;;;24.27;8.88;;;2.50;99.90;;;;;;6163861;23;20021;-79
2022/12/28 18:09:39;;;;;;;24.60;9.50;;;2.40;99.90;;;;;;6140578;23;20024;-79
2022/12/28 18:12:06;;;;;;;21.75;7.72;;;3.20;99.90;;;;;;6145560;23;20231;-79
2022/12/28 20:05:00;;;;;;;82.90;39.38;;;1.40;99.90;;;;;;6213353;22;20235;-80
2022/12/28 20:07:31;;;;;;;76.43;39.40;;;1.20;99.90;;;;;;6186017;23;20024;-80
2022/12/28 20:09:59;;;;;;;79.63;37.05;;;1.10;99.90;;;;;;6211462;23;20045;-80
2022/12/28 20:12:27;;;;;;;61.25;27.98;;;1.20;99.90;;;;;;6185182;23;20028;-80
2022/12/28 20:14:54;;;;;;;60.53;27.92;;;1.00;99.90;;;;;;6186199;23;20008;-80
2022/12/28 21:26:32;;;;;;;66.70;28.88;;;0.70;99.90;;;;;;6203758;22;20023;-79
2022/12/28 21:29:00;;;;;;;55.88;24.08;;;0.40;99.90;;;;;;6261309;22;20071;-80
2022/12/28 21:31:27;;;;;;;59.65;24.33;;;0.60;99.90;;;;;;6247661;22;20022;-79
2022/12/28 21:33:55;;;;;;;59.50;23.90;;;0.30;99.90;;;;;;6249512;22;20034;-79
2022/12/28 21:36:39;;;;;;;55.15;23.75;;;0.60;99.90;;;;;;6236139;23;21022;31
2022/12/28 21:39:07;;;;;;;55.97;21.98;;;0.60;99.90;;;;;;6185018;23;20005;-79
2022/12/28 21:41:49;;;;;;;52.88;23.05;;;0.20;99.90;;;;;;6183094;23;20033;-80
2022/12/28 21:44:23;;;;;;;52.13;23.20;;;0.40;99.90;;;;;;6179240;23;20029;-80
2022/12/28 21:46:52;;;;;;;62.05;25.17;;;0.50;99.90;;;;;;6204601;23;20021;-79
2022/12/28 21:49:19;;;;;;;59.13;23.42;;;0.40;99.90;;;;;;6203362;23;20028;-79
2022/12/28 21:51:50;;;;;;;70.80;29.65;;;0.50;99.90;;;;;;6178010;23;20036;-80
2022/12/28 21:54:20;;;;;;;102.43;41.97;;;0.10;99.90;;;;;;6173141;23;20022;-79
2022/12/28 21:56:53;;;;;;;77.38;32.65;;;0.50;99.90;;;;;;6173986;23;20081;-78
2022/12/28 21:59:21;;;;;;;;;;;0.40;99.90;;;;;;6174709;23;20085;-80
2022/12/28 22:07:29;;;;;;;98.45;37.75;;;0.30;99.90;;;;;;6194540;23;20043;-79
2022/12/28 22:12:45;;;;;;;65.25;26.48;;;0.20;99.90;;;;;;6175064;23;20037;-79
2022/12/28 22:18:16;;;;;;;49.67;21.75;;;0.10;99.90;;;;;;6181291;23;20047;-79
2022/12/28 22:21:03;;;;;;;47.47;20.55;;;0.20;99.90;;;;;;6186431;23;20025;-79
2022/12/28 22:23:31;;;;;;;51.88;22.98;;;0.20;99.90;;;;;;6181860;23;20001;-78
2022/12/28 22:26:03;;;;;;;51.47;21.83;;;-0.10;99.90;;;;;;6182802;23;20077;-79
2022/12/28 22:28:31;;;;;;;54.45;24.15;;;0.20;99.90;;;;;;6183105;23;20017;-79
2022/12/28 22:31:07;;;;;;;54.60;25.42;;;0.30;99.90;;;;;;6184113;23;20012;-79
2022/12/28 22:33:35;;;;;;;69.50;27.88;;;0.10;99.90;;;;;;6184069;23;19997;-79
